sensor_id;sensor_type;location;lat;lon;timestamp;pressure;altitude;pressure_sealevel;temperature;humidity
65534;BME280;53640;55.838;37.184;2023-04-24T00:01:30;99145.25;;;11.11;28.21
65534;BME280;53640;55.838;37.184;2023-04-24T00:03:58;99161.69;;;11.28;28.32
65534;BME280;53640;55.838;37.184;2023-04-24T00:06:26;99155.38;;;11.16;28.26
65534;BME280;53640;55.838;37.184;2023-04-24T00:09:00;99159.28;;;11.20;28.53
65534;BME280;53640;55.838;37.184;2023-04-24T00:11:29;99139.53;;;11.01;28.74
65534;BME280;53640;55.838;37.184;2023-04-24T00:13:56;99166.38;;;11.21;28.70
65534;BME280;53640;55.838;37.184;2023-04-24T00:16:23;99125.38;;;10.99;28.41
65534;BME280;53640;55.838;37.184;2023-04-24T00:18:49;99135.53;;;11.03;28.46
65534;BME280;53640;55.838;37.184;2023-04-24T00:21:19;99043.06;;;10.45;28.52
65534;BME280;53640;55.838;37.184;2023-04-24T00:23:46;99157.28;;;11.15;28.47
65534;BME280;53640;55.838;37.184;2023-04-24T00:26:13;99133.72;;;10.97;28.63
65534;BME280;53640;55.838;37.184;2023-04-24T00:28:39;99151.09;;;11.08;28.45
65534;BME280;53640;55.838;37.184;2023-04-24T00:31:06;99164.41;;;11.10;28.51
65534;BME280;53640;55.838;37.184;2023-04-24T00:33:34;99155.38;;;10.97;28.69
65534;BME280;53640;55.838;37.184;2023-04-24T00:36:00;99106.59;;;10.61;29.00
65534;BME280;53640;55.838;37.184;2023-04-24T00:38:28;99152.22;;;10.82;28.78
65534;BME280;53640;55.838;37.184;2023-04-24T00:40:56;99093.66;;;10.44;28.92
65534;BME280;53640;55.838;37.184;2023-04-24T00:43:23;99153.19;;;10.69;29.28
65534;BME280;53640;55.838;37.184;2023-04-24T00:45:49;99097.09;;;10.33;29.43
65534;BME280;53640;55.838;37.184;2023-04-24T00:48:16;99154.50;;;10.60;29.08
65534;BME280;53640;55.838;37.184;2023-04-24T00:50:45;99090.53;;;10.22;29.44
65534;BME280;53640;55.838;37.184;2023-04-24T00:53:14;99151.25;;;10.51;29.58
65534;BME280;53640;55.838;37.184;2023-04-24T00:55:42;99145.94;;;10.38;29.59
65534;BME280;53640;55.838;37.184;2023-04-24T00:58:08;99161.94;;;10.46;29.93
65534;BME280;53640;55.838;37.184;2023-04-24T01:00:35;99116.28;;;10.06;30.10
65534;BME280;53640;55.838;37.184;2023-04-24T01:03:04;99135.97;;;10.14;29.89
65534;BME280;53640;55.838;37.184;2023-04-24T01:05:32;99143.25;;;10.13;30.45
65534;BME280;53640;55.838;37.184;2023-04-24T01:08:01;99159.88;;;10.17;30.45
65534;BME280;53640;55.838;37.184;2023-04-24T01:10:31;99116.19;;;9.88;30.34
65534;BME280;53640;55.838;37.184;2023-04-24T01:13:00;99102.16;;;9.73;30.48
65534;BME280;53640;55.838;37.184;2023-04-24T01:15:31;99147.53;;;9.96;30.44
65534;BME280;53640;55.838;37.184;2023-04-24T01:17:57;99144.28;;;9.87;30.58
65534;BME280;53640;55.838;37.184;2023-04-24T01:20:24;99136.44;;;9.79;31.01
65534;BME280;53640;55.838;37.184;2023-04-24T01:22:54;99135.03;;;9.70;30.86
65534;BME280;53640;55.838;37.184;2023-04-24T01:25:26;99135.47;;;9.67;30.92
65534;BME280;53640;55.838;37.184;2023-04-24T01:27:57;99111.25;;;9.47;30.89
65534;BME280;53640;55.838;37.184;2023-04-24T01:30:24;99139.66;;;9.63;31.43
65534;BME280;53640;55.838;37.184;2023-04-24T01:32:52;99133.91;;;9.52;31.15
65534;BME280;53640;55.838;37.184;2023-04-24T01:35:19;99082.31;;;9.22;31.50
65534;BME280;53640;55.838;37.184;2023-04-24T01:37:47;99133.69;;;9.47;31.32
65534;BME280;53640;55.838;37.184;2023-04-24T01:40:15;99098.28;;;9.24;31.92
65534;BME280;53640;55.838;37.184;2023-04-24T01:42:42;99129.63;;;9.31;32.00
65534;BME280;53640;55.838;37.184;2023-04-24T01:45:11;99113.66;;;9.23;31.82
65534;BME280;53640;55.838;37.184;2023-04-24T01:47:39;99127.34;;;9.28;31.88
65534;BME280;53640;55.838;37.184;2023-04-24T01:50:08;99087.19;;;9.00;31.94
65534;BME280;53640;55.838;37.184;2023-04-24T01:52:36;99095.44;;;9.05;32.43
65534;BME280;53640;55.838;37.184;2023-04-24T01:55:04;99135.50;;;9.15;32.45
65534;BME280;53640;55.838;37.184;2023-04-24T01:57:31;99131.34;;;9.13;32.58
65534;BME280;53640;55.838;37.184;2023-04-24T01:59:59;99135.31;;;9.10;32.65
65534;BME280;53640;55.838;37.184;2023-04-24T02:02:26;99141.56;;;9.11;33.27
65534;BME280;53640;55.838;37.184;2023-04-24T02:04:56;99137.00;;;9.04;32.85
65534;BME280;53640;55.838;37.184;2023-04-24T02:07:23;99133.91;;;9.01;32.53
65534;BME280;53640;55.838;37.184;2023-04-24T02:09:49;99141.78;;;9.02;32.46
65534;BME280;53640;55.838;37.184;2023-04-24T02:12:16;99119.38;;;8.95;32.29
65534;BME280;53640;55.838;37.184;2023-04-24T02:14:44;99095.38;;;8.74;32.74
65534;BME280;53640;55.838;37.184;2023-04-24T02:17:10;99122.28;;;8.94;32.48
65534;BME280;53640;55.838;37.184;2023-04-24T02:19:39;99149.03;;;9.08;32.53
65534;BME280;53640;55.838;37.184;2023-04-24T02:22:05;99133.66;;;9.02;32.37
65534;BME280;53640;55.838;37.184;2023-04-24T02:24:34;99123.09;;;9.01;32.33
65534;BME280;53640;55.838;37.184;2023-04-24T02:27:00;99128.91;;;8.98;32.33
65534;BME280;53640;55.838;37.184;2023-04-24T02:29:28;99106.13;;;8.87;32.72
65534;BME280;53640;55.838;37.184;2023-04-24T02:31:56;99111.31;;;8.82;32.59
65534;BME280;53640;55.838;37.184;2023-04-24T02:34:25;99140.94;;;9.02;32.76
65534;BME280;53640;55.838;37.184;2023-04-24T02:36:54;99147.81;;;9.04;32.58
65534;BME280;53640;55.838;37.184;2023-04-24T02:39:23;99153.38;;;9.09;32.62
65534;BME280;53640;55.838;37.184;2023-04-24T02:41:51;99089.16;;;8.67;32.88
65534;BME280;53640;55.838;37.184;2023-04-24T02:44:17;99116.09;;;8.80;32.57
65534;BME280;53640;55.838;37.184;2023-04-24T02:46:46;99136.84;;;8.86;32.70
65534;BME280;53640;55.838;37.184;2023-04-24T02:49:13;99136.03;;;8.79;33.14
65534;BME280;53640;55.838;37.184;2023-04-24T02:51:39;99155.94;;;8.91;32.91
65534;BME280;53640;55.838;37.184;2023-04-24T02:54:08;99133.75;;;8.76;32.54
65534;BME280;53640;55.838;37.184;2023-04-24T02:56:39;99165.06;;;8.97;32.87
65534;BME280;53640;55.838;37.184;2023-04-24T02:59:07;99098.97;;;8.54;32.67
65534;BME280;53640;55.838;37.184;2023-04-24T03:01:38;99158.84;;;8.96;32.75
65534;BME280;53640;55.838;37.184;2023-04-24T03:04:05;99128.81;;;8.73;33.03
65534;BME280;53640;55.838;37.184;2023-04-24T03:06:32;99134.38;;;8.78;32.78
65534;BME280;53640;55.838;37.184;2023-04-24T03:08:59;99148.47;;;8.87;33.06
65534;BME280;53640;55.838;37.184;2023-04-24T03:11:26;99167.75;;;9.03;32.96
65534;BME280;53640;55.838;37.184;2023-04-24T03:13:52;99149.09;;;8.89;33.05
65534;BME280;53640;55.838;37.184;2023-04-24T03:16:20;99167.31;;;9.06;33.00
65534;BME280;53640;55.838;37.184;2023-04-24T03:18:48;99145.13;;;8.91;32.72
65534;BME280;53640;55.838;37.184;2023-04-24T03:21:16;99148.63;;;8.98;32.68
65534;BME280;53640;55.838;37.184;2023-04-24T03:23:44;99150.50;;;9.04;32.61
65534;BME280;53640;55.838;37.184;2023-04-24T03:26:10;99189.06;;;9.25;32.40
65534;BME280;53640;55.838;37.184;2023-04-24T03:28:42;99173.31;;;9.22;32.70
65534;BME280;53640;55.838;37.184;2023-04-24T03:31:09;99140.13;;;9.01;32.63
65534;BME280;53640;55.838;37.184;2023-04-24T03:33:37;99185.09;;;9.27;32.38
65534;BME280;53640;55.838;37.184;2023-04-24T03:36:04;99175.13;;;9.28;32.75
65534;BME280;53640;55.838;37.184;2023-04-24T03:38:39;99143.84;;;9.07;32.71
65534;BME280;53640;55.838;37.184;2023-04-24T03:41:36;99145.09;;;9.11;32.70
65534;BME280;53640;55.838;37.184;2023-04-24T03:44:11;99142.38;;;9.11;32.62
65534;BME280;53640;55.838;37.184;2023-04-24T03:46:40;99073.16;;;8.65;33.06
65534;BME280;53640;55.838;37.184;2023-04-24T03:49:11;99051.41;;;8.53;32.70
65534;BME280;53640;55.838;37.184;2023-04-24T03:51:42;99107.34;;;8.91;32.60
65534;BME280;53640;55.838;37.184;2023-04-24T03:54:19;99051.00;;;8.56;32.71
65534;BME280;53640;55.838;37.184;2023-04-24T03:57:11;99181.09;;;9.37;32.56
65534;BME280;53640;55.838;37.184;2023-04-24T03:59:48;99147.53;;;9.19;32.85
65534;BME280;53640;55.838;37.184;2023-04-24T04:02:21;99195.44;;;9.50;32.93
65534;BME280;53640;55.838;37.184;2023-04-24T04:04:47;99114.97;;;9.07;32.89
65534;BME280;53640;55.838;37.184;2023-04-24T04:07:14;99088.28;;;8.86;33.06
65534;BME280;53640;55.838;37.184;2023-04-24T04:09:42;99194.34;;;9.58;33.15
65534;BME280;53640;55.838;37.184;2023-04-24T04:12:09;99095.72;;;8.91;33.15
65534;BME280;53640;55.838;37.184;2023-04-24T04:14:38;99163.22;;;9.42;32.91
65534;BME280;53640;55.838;37.184;2023-04-24T04:17:14;99184.16;;;9.60;32.97
65534;BME280;53640;55.838;37.184;2023-04-24T04:23:59;99108.84;;;9.25;32.73
65534;BME280;53640;55.838;37.184;2023-04-24T04:27:28;99203.50;;;9.95;32.58
65534;BME280;53640;55.838;37.184;2023-04-24T04:31:34;99112.97;;;9.34;32.87
65534;BME280;53640;55.838;37.184;2023-04-24T04:34:18;99138.41;;;9.65;33.17
65534;BME280;53640;55.838;37.184;2023-04-24T04:37:00;99210.66;;;10.15;33.04
65534;BME280;53640;55.838;37.184;2023-04-24T04:40:15;99124.06;;;9.65;32.69
65534;BME280;53640;55.838;37.184;2023-04-24T04:43:00;99062.47;;;9.35;33.36
65534;BME280;53640;55.838;37.184;2023-04-24T04:45:37;99129.13;;;9.86;32.97
65534;BME280;53640;55.838;37.184;2023-04-24T04:48:32;99210.03;;;10.44;32.98
65534;BME280;53640;55.838;37.184;2023-04-24T04:51:11;99072.56;;;9.60;32.85
65534;BME280;53640;55.838;37.184;2023-04-24T04:53:45;99092.38;;;9.78;33.20
65534;BME280;53640;55.838;37.184;2023-04-24T04:56:18;99229.84;;;10.63;32.94
65534;BME280;53640;55.838;37.184;2023-04-24T04:58:55;99139.91;;;10.18;32.91
65534;BME280;53640;55.838;37.184;2023-04-24T05:01:28;99153.47;;;10.36;33.03
65534;BME280;53640;55.838;37.184;2023-04-24T05:44:17;99183.31;;;12.37;30.76
65534;BME280;53640;55.838;37.184;2023-04-24T05:46:44;99228.03;;;12.76;30.63
65534;BME280;53640;55.838;37.184;2023-04-24T05:49:11;99175.78;;;12.62;30.40
65534;BME280;53640;55.838;37.184;2023-04-24T06:00:10;99101.88;;;12.72;29.61
65534;BME280;53640;55.838;37.184;2023-04-24T06:06:20;99116.69;;;13.28;29.24
65534;BME280;53640;55.838;37.184;2023-04-24T06:12:33;99164.38;;;14.22;28.53
65534;BME280;53640;55.838;37.184;2023-04-24T06:15:06;99198.41;;;14.70;27.66
65534;BME280;53640;55.838;37.184;2023-04-24T06:17:51;99138.69;;;14.51;27.43
65534;BME280;53640;55.838;37.184;2023-04-24T06:20:19;99202.31;;;15.12;27.08
65534;BME280;53640;55.838;37.184;2023-04-24T06:22:47;99191.84;;;15.26;26.98
65534;BME280;53640;55.838;37.184;2023-04-24T06:25:13;99219.13;;;15.65;26.63
65534;BME280;53640;55.838;37.184;2023-04-24T06:27:41;99200.09;;;15.75;26.55
65534;BME280;53640;55.838;37.184;2023-04-24T06:30:08;99131.72;;;15.60;26.35
65534;BME280;53640;55.838;37.184;2023-04-24T06:32:35;99126.69;;;15.74;25.69
65534;BME280;53640;55.838;37.184;2023-04-24T06:35:24;99175.53;;;16.29;25.85
65534;BME280;53640;55.838;37.184;2023-04-24T06:37:51;99121.31;;;16.11;25.61
65534;BME280;53640;55.838;37.184;2023-04-24T06:40:18;99110.69;;;16.15;25.14
65534;BME280;53640;55.838;37.184;2023-04-24T06:42:46;99103.91;;;16.22;24.97
65534;BME280;53640;55.838;37.184;2023-04-24T06:45:16;99165.19;;;16.64;24.78
65534;BME280;53640;55.838;37.184;2023-04-24T06:47:43;99151.28;;;16.70;24.48
65534;BME280;53640;55.838;37.184;2023-04-24T06:50:13;99171.94;;;16.93;24.21
65534;BME280;53640;55.838;37.184;2023-04-24T06:52:40;99149.72;;;16.85;23.89
65534;BME280;53640;55.838;37.184;2023-04-24T06:55:15;99131.16;;;16.87;24.12
65534;BME280;53640;55.838;37.184;2023-04-24T06:57:45;99178.94;;;17.21;23.57
65534;BME280;53640;55.838;37.184;2023-04-24T07:00:12;99121.91;;;16.93;23.02
65534;BME280;53640;55.838;37.184;2023-04-24T07:02:39;99165.84;;;17.34;23.27
65534;BME280;53640;55.838;37.184;2023-04-24T07:05:06;99148.38;;;17.35;23.13
65534;BME280;53640;55.838;37.184;2023-04-24T07:07:34;99124.25;;;17.26;23.21
65534;BME280;53640;55.838;37.184;2023-04-24T07:10:05;99213.41;;;17.90;23.18
65534;BME280;53640;55.838;37.184;2023-04-24T07:12:31;99192.03;;;17.82;22.67
65534;BME280;53640;55.838;37.184;2023-04-24T07:15:00;99197.81;;;17.91;22.35
65534;BME280;53640;55.838;37.184;2023-04-24T07:17:26;99210.47;;;18.02;22.68
65534;BME280;53640;55.838;37.184;2023-04-24T07:19:54;99165.47;;;17.77;22.08
65534;BME280;53640;55.838;37.184;2023-04-24T07:22:21;99210.19;;;18.03;22.30
65534;BME280;53640;55.838;37.184;2023-04-24T07:24:48;99244.22;;;18.33;22.29
65534;BME280;53640;55.838;37.184;2023-04-24T07:27:22;99224.75;;;18.35;22.17
65534;BME280;53640;55.838;37.184;2023-04-24T07:29:54;99131.03;;;17.97;22.25
65534;BME280;53640;55.838;37.184;2023-04-24T07:32:32;99167.22;;;18.30;21.29
65534;BME280;53640;55.838;37.184;2023-04-24T07:35:19;99228.91;;;18.78;21.50
65534;BME280;53640;55.838;37.184;2023-04-24T07:38:24;99239.03;;;18.88;20.55
65534;BME280;53640;55.838;37.184;2023-04-24T07:41:42;99217.94;;;18.83;20.91
65534;BME280;53640;55.838;37.184;2023-04-24T07:44:52;99165.28;;;18.45;21.13
65534;BME280;53640;55.838;37.184;2023-04-24T07:48:19;99163.94;;;18.48;20.87
65534;BME280;53640;55.838;37.184;2023-04-24T07:51:30;99129.94;;;18.23;20.37
65534;BME280;53640;55.838;37.184;2023-04-24T07:58:40;99139.25;;;18.43;20.81
65534;BME280;53640;55.838;37.184;2023-04-24T08:02:30;99114.03;;;18.31;19.61
65534;BME280;53640;55.838;37.184;2023-04-24T08:05:34;99146.34;;;18.54;18.60
65534;BME280;53640;55.838;37.184;2023-04-24T08:08:00;99217.38;;;18.91;18.87
65534;BME280;53640;55.838;37.184;2023-04-24T08:10:27;99197.63;;;18.89;18.62
65534;BME280;53640;55.838;37.184;2023-04-24T08:12:54;99213.22;;;19.19;18.90
65534;BME280;53640;55.838;37.184;2023-04-24T08:15:21;99207.69;;;19.40;18.88
65534;BME280;53640;55.838;37.184;2023-04-24T08:17:52;99188.31;;;19.70;18.56
65534;BME280;53640;55.838;37.184;2023-04-24T08:20:19;99198.84;;;20.13;18.32
65534;BME280;53640;55.838;37.184;2023-04-24T08:22:45;99192.84;;;20.40;17.20
65534;BME280;53640;55.838;37.184;2023-04-24T08:32:59;99224.44;;;21.83;16.58
65534;BME280;53640;55.838;37.184;2023-04-24T08:35:43;99157.59;;;21.53;15.91
65534;BME280;53640;55.838;37.184;2023-04-24T08:38:42;99189.78;;;21.96;15.92
65534;BME280;53640;55.838;37.184;2023-04-24T08:41:12;99133.34;;;21.93;16.43
65534;BME280;53640;55.838;37.184;2023-04-24T08:43:44;99098.34;;;21.75;16.53
65534;BME280;53640;55.838;37.184;2023-04-24T08:46:44;99189.00;;;22.14;15.87
65534;BME280;53640;55.838;37.184;2023-04-24T08:49:15;99090.22;;;21.46;15.92
65534;BME280;53640;55.838;37.184;2023-04-24T08:51:45;99113.22;;;21.93;16.07
65534;BME280;53640;55.838;37.184;2023-04-24T08:54:14;99105.84;;;21.88;15.81
65534;BME280;53640;55.838;37.184;2023-04-24T08:56:44;99144.88;;;21.95;16.01
65534;BME280;53640;55.838;37.184;2023-04-24T08:59:11;99071.09;;;21.11;15.76
65534;BME280;53640;55.838;37.184;2023-04-24T09:01:41;99098.50;;;20.98;15.91
65534;BME280;53640;55.838;37.184;2023-04-24T09:04:09;99095.16;;;20.77;16.29
65534;BME280;53640;55.838;37.184;2023-04-24T09:06:40;99072.94;;;20.44;16.74
65534;BME280;53640;55.838;37.184;2023-04-24T09:18:49;99184.47;;;20.89;16.35
65534;BME280;53640;55.838;37.184;2023-04-24T09:58:01;99073.16;;;23.93;14.10
65534;BME280;53640;55.838;37.184;2023-04-24T10:00:33;99097.31;;;24.77;13.35
65534;BME280;53640;55.838;37.184;2023-04-24T10:03:05;99119.97;;;25.19;12.32
65534;BME280;53640;55.838;37.184;2023-04-24T10:05:36;99139.09;;;25.38;12.59
65534;BME280;53640;55.838;37.184;2023-04-24T10:08:08;99037.44;;;25.08;12.68
65534;BME280;53640;55.838;37.184;2023-04-24T10:10:38;99073.06;;;25.58;12.24
65534;BME280;53640;55.838;37.184;2023-04-24T10:13:07;99030.28;;;26.28;12.16
65534;BME280;53640;55.838;37.184;2023-04-24T10:15:38;99091.56;;;26.87;12.17
65534;BME280;53640;55.838;37.184;2023-04-24T10:18:05;99077.28;;;26.98;11.27
65534;BME280;53640;55.838;37.184;2023-04-24T10:20:34;99021.94;;;27.13;11.41
65534;BME280;53640;55.838;37.184;2023-04-24T10:23:01;99096.75;;;27.99;10.84
65534;BME280;53640;55.838;37.184;2023-04-24T10:25:30;99071.34;;;27.79;10.56
65534;BME280;53640;55.838;37.184;2023-04-24T10:27:59;99001.75;;;27.67;11.19
65534;BME280;53640;55.838;37.184;2023-04-24T10:30:30;99066.50;;;28.43;10.78
65534;BME280;53640;55.838;37.184;2023-04-24T10:33:06;99041.19;;;28.35;10.83
65534;BME280;53640;55.838;37.184;2023-04-24T10:35:38;99085.84;;;28.72;11.07
65534;BME280;53640;55.838;37.184;2023-04-24T10:38:12;99075.06;;;28.83;10.82
65534;BME280;53640;55.838;37.184;2023-04-24T10:40:42;99085.88;;;29.21;9.88
65534;BME280;53640;55.838;37.184;2023-04-24T10:46:53;99072.50;;;28.32;10.37
65534;BME280;53640;55.838;37.184;2023-04-24T10:49:39;99074.44;;;27.66;11.13
65534;BME280;53640;55.838;37.184;2023-04-24T10:52:09;99003.78;;;26.48;11.17
65534;BME280;53640;55.838;37.184;2023-04-24T10:54:46;99024.06;;;26.40;11.50
65534;BME280;53640;55.838;37.184;2023-04-24T11:00:24;99043.22;;;27.60;11.36
65534;BME280;53640;55.838;37.184;2023-04-24T11:02:53;98996.91;;;27.97;10.77
65534;BME280;53640;55.838;37.184;2023-04-24T11:05:53;99053.34;;;28.89;10.65
65534;BME280;53640;55.838;37.184;2023-04-24T11:16:46;98989.56;;;27.93;10.81
65534;BME280;53640;55.838;37.184;2023-04-24T11:19:25;99000.72;;;27.93;10.92
65534;BME280;53640;55.838;37.184;2023-04-24T11:22:27;99072.84;;;28.89;10.38
65534;BME280;53640;55.838;37.184;2023-04-24T11:25:04;99071.47;;;29.31;10.50
65534;BME280;53640;55.838;37.184;2023-04-24T11:27:43;98987.75;;;29.16;9.96
65534;BME280;53640;55.838;37.184;2023-04-24T11:30:11;99008.00;;;29.81;9.85
65534;BME280;53640;55.838;37.184;2023-04-24T11:32:41;99031.97;;;30.10;9.22
65534;BME280;53640;55.838;37.184;2023-04-24T11:35:20;98969.19;;;30.04;9.66
65534;BME280;53640;55.838;37.184;2023-04-24T11:37:52;98979.31;;;30.40;9.69
65534;BME280;53640;55.838;37.184;2023-04-24T11:40:22;99027.19;;;30.70;9.31
65534;BME280;53640;55.838;37.184;2023-04-24T11:42:51;98959.19;;;30.03;9.71
65534;BME280;53640;55.838;37.184;2023-04-24T11:45:24;99059.44;;;30.84;9.38
65534;BME280;53640;55.838;37.184;2023-04-24T11:48:33;99040.03;;;30.91;8.77
65534;BME280;53640;55.838;37.184;2023-04-24T11:51:02;98963.50;;;30.80;8.97
65534;BME280;53640;55.838;37.184;2023-04-24T11:53:30;99001.00;;;31.30;8.89
65534;BME280;53640;55.838;37.184;2023-04-24T11:56:24;98975.38;;;31.08;8.99
65534;BME280;53640;55.838;37.184;2023-04-24T11:58:52;98995.59;;;31.02;9.24
65534;BME280;53640;55.838;37.184;2023-04-24T12:04:26;98969.97;;;30.84;8.66
65534;BME280;53640;55.838;37.184;2023-04-24T12:07:04;98991.44;;;31.11;8.92
65534;BME280;53640;55.838;37.184;2023-04-24T12:09:45;99022.91;;;31.08;8.80
65534;BME280;53640;55.838;37.184;2023-04-24T12:12:28;98923.47;;;30.24;8.95
65534;BME280;53640;55.838;37.184;2023-04-24T12:18:22;98981.28;;;30.71;8.92
65534;BME280;53640;55.838;37.184;2023-04-24T12:21:23;98924.34;;;30.60;8.76
65534;BME280;53640;55.838;37.184;2023-04-24T13:14:47;98914.53;;;32.02;8.24
65534;BME280;53640;55.838;37.184;2023-04-24T13:17:17;98942.16;;;32.50;8.28
65534;BME280;53640;55.838;37.184;2023-04-24T13:19:44;98913.41;;;32.07;7.99
65534;BME280;53640;55.838;37.184;2023-04-24T13:48:49;98945.22;;;25.68;11.15
65534;BME280;53640;55.838;37.184;2023-04-24T13:52:45;98831.47;;;24.34;11.41
65534;BME280;53640;55.838;37.184;2023-04-24T14:17:12;98807.94;;;21.43;13.40
65534;BME280;53640;55.838;37.184;2023-04-24T15:43:27;98901.72;;;20.14;15.38
65534;BME280;53640;55.838;37.184;2023-04-24T15:46:20;98768.34;;;19.26;15.18
65534;BME280;53640;55.838;37.184;2023-04-24T15:53:33;98800.44;;;19.26;15.46
65534;BME280;53640;55.838;37.184;2023-04-24T16:03:36;98792.84;;;18.83;15.82
65534;BME280;53640;55.838;37.184;2023-04-24T16:06:08;98806.28;;;18.85;15.69
65534;BME280;53640;55.838;37.184;2023-04-24T16:20:43;98808.16;;;18.45;16.43
65534;BME280;53640;55.838;37.184;2023-04-24T16:23:09;98859.59;;;18.68;16.25
65534;BME280;53640;55.838;37.184;2023-04-24T16:25:36;98788.00;;;18.20;16.56
65534;BME280;53640;55.838;37.184;2023-04-24T16:28:06;98909.66;;;18.84;16.41
65534;BME280;53640;55.838;37.184;2023-04-24T16:30:37;98853.94;;;18.39;16.32
65534;BME280;53640;55.838;37.184;2023-04-24T16:36:57;98824.31;;;17.92;16.89
65534;BME280;53640;55.838;37.184;2023-04-24T16:39:35;98762.00;;;17.48;17.21
65534;BME280;53640;55.838;37.184;2023-04-24T16:42:07;98903.59;;;18.27;17.12
65534;BME280;53640;55.838;37.184;2023-04-24T16:44:35;98779.03;;;17.35;17.27
65534;BME280;53640;55.838;37.184;2023-04-24T16:47:06;98759.06;;;17.14;17.25
65534;BME280;53640;55.838;37.184;2023-04-24T16:49:42;98815.38;;;17.40;17.48
65534;BME280;53640;55.838;37.184;2023-04-24T16:52:13;98862.69;;;17.61;17.23
65534;BME280;53640;55.838;37.184;2023-04-24T16:55:00;98774.09;;;17.01;17.68
65534;BME280;53640;55.838;37.184;2023-04-24T16:58:13;98826.63;;;17.18;17.65
65534;BME280;53640;55.838;37.184;2023-04-24T17:09:23;98788.31;;;16.57;18.08
65534;BME280;53640;55.838;37.184;2023-04-24T17:11:57;98787.47;;;16.46;18.16
65534;BME280;53640;55.838;37.184;2023-04-24T17:14:33;98869.78;;;16.91;18.03
65534;BME280;53640;55.838;37.184;2023-04-24T17:17:27;98793.97;;;16.30;18.62
65534;BME280;53640;55.838;37.184;2023-04-24T17:19:56;98810.66;;;16.39;18.80
65534;BME280;53640;55.838;37.184;2023-04-24T17:22:23;98832.00;;;16.37;18.72
65534;BME280;53640;55.838;37.184;2023-04-24T17:24:51;98820.72;;;16.28;18.88
65534;BME280;53640;55.838;37.184;2023-04-24T17:27:18;98843.94;;;16.25;18.68
65534;BME280;53640;55.838;37.184;2023-04-24T17:29:57;98791.66;;;15.91;18.89
65534;BME280;53640;55.838;37.184;2023-04-24T17:32:31;98895.41;;;16.49;18.63
65534;BME280;53640;55.838;37.184;2023-04-24T17:35:19;98836.50;;;16.10;19.00
65534;BME280;53640;55.838;37.184;2023-04-24T17:37:48;98871.25;;;16.30;19.01
65534;BME280;53640;55.838;37.184;2023-04-24T17:40:17;98835.38;;;16.01;19.17
65534;BME280;53640;55.838;37.184;2023-04-24T17:42:47;98807.09;;;15.65;18.98
65534;BME280;53640;55.838;37.184;2023-04-24T17:45:19;98871.16;;;16.05;19.32
65534;BME280;53640;55.838;37.184;2023-04-24T17:47:57;98841.53;;;15.76;19.36
65534;BME280;53640;55.838;37.184;2023-04-24T17:50:24;98962.59;;;16.45;19.22
65534;BME280;53640;55.838;37.184;2023-04-24T17:52:55;98816.84;;;15.51;19.75
65534;BME280;53640;55.838;37.184;2023-04-24T17:55:54;98838.44;;;15.57;19.50
65534;BME280;53640;55.838;37.184;2023-04-24T17:58:36;98964.41;;;16.29;19.78
65534;BME280;53640;55.838;37.184;2023-04-24T18:01:04;98882.66;;;15.65;20.04
65534;BME280;53640;55.838;37.184;2023-04-24T18:03:30;98809.25;;;15.21;20.39
65534;BME280;53640;55.838;37.184;2023-04-24T18:05:58;98893.25;;;15.56;19.95
65534;BME280;53640;55.838;37.184;2023-04-24T18:08:24;98816.31;;;15.17;20.02
65534;BME280;53640;55.838;37.184;2023-04-24T18:10:52;98939.00;;;15.86;20.17
65534;BME280;53640;55.838;37.184;2023-04-24T18:13:18;98892.41;;;15.50;20.18
65534;BME280;53640;55.838;37.184;2023-04-24T18:15:46;98973.97;;;15.89;20.10
65534;BME280;53640;55.838;37.184;2023-04-24T18:18:13;98953.69;;;15.75;20.62
65534;BME280;53640;55.838;37.184;2023-04-24T18:20:43;98956.97;;;15.77;20.35
65534;BME280;53640;55.838;37.184;2023-04-24T18:23:10;98872.69;;;15.11;21.02
65534;BME280;53640;55.838;37.184;2023-04-24T18:25:42;98816.56;;;14.83;20.80
65534;BME280;53640;55.838;37.184;2023-04-24T18:28:55;98878.19;;;15.16;20.58
65534;BME280;53640;55.838;37.184;2023-04-24T18:31:55;98857.22;;;14.89;20.74
65534;BME280;53640;55.838;37.184;2023-04-24T18:34:30;98891.28;;;15.19;20.85
65534;BME280;53640;55.838;37.184;2023-04-24T18:36:57;98979.00;;;15.65;20.90
65534;BME280;53640;55.838;37.184;2023-04-24T18:39:37;98884.63;;;15.05;21.33
65534;BME280;53640;55.838;37.184;2023-04-24T18:45:45;98880.72;;;14.96;21.42
65534;BME280;53640;55.838;37.184;2023-04-24T18:48:27;98830.28;;;14.66;21.02
65534;BME280;53640;55.838;37.184;2023-04-24T18:52:00;98974.00;;;15.57;21.22
65534;BME280;53640;55.838;37.184;2023-04-24T18:54:47;98864.94;;;14.71;20.95
65534;BME280;53640;55.838;37.184;2023-04-24T19:00:42;98869.16;;;14.83;21.34
65534;BME280;53640;55.838;37.184;2023-04-24T19:03:10;98859.47;;;14.71;21.37
65534;BME280;53640;55.838;37.184;2023-04-24T19:05:47;98852.16;;;14.71;21.40
65534;BME280;53640;55.838;37.184;2023-04-24T19:08:14;98903.78;;;15.15;21.27
65534;BME280;53640;55.838;37.184;2023-04-24T19:10:51;98916.38;;;15.16;21.30
65534;BME280;53640;55.838;37.184;2023-04-24T19:16:35;98877.44;;;14.94;21.27
65534;BME280;53640;55.838;37.184;2023-04-24T19:19:02;98886.22;;;15.01;21.60
65534;BME280;53640;55.838;37.184;2023-04-24T19:21:29;98836.13;;;14.75;21.41
65534;BME280;53640;55.838;37.184;2023-04-24T19:24:15;98910.97;;;15.26;21.42
65534;BME280;53640;55.838;37.184;2023-04-24T19:27:03;98879.13;;;15.00;21.39
65534;BME280;53640;55.838;37.184;2023-04-24T19:29:36;98882.16;;;15.03;21.50
65534;BME280;53640;55.838;37.184;2023-04-24T19:32:05;98833.84;;;14.67;21.55
65534;BME280;53640;55.838;37.184;2023-04-24T19:34:31;98819.09;;;14.62;21.78
65534;BME280;53640;55.838;37.184;2023-04-24T19:37:02;98910.13;;;15.21;21.44
65534;BME280;53640;55.838;37.184;2023-04-24T19:39:32;98807.31;;;14.57;21.78